sensor_id;sensor_type;location;lat;lon;timestamp;temperature;humidity
39997;DHT22;25688;52.338;21.072;2024-01-15T00:02:08;0.90;99.90
39997;DHT22;25688;52.338;21.072;2024-01-15T00:04:38;1.00;99.90
39997;DHT22;25688;52.338;21.072;2024-01-15T00:07:05;1.00;99.90
39997;DHT22;25688;52.338;21.072;2024-01-15T00:09:30;1.10;99.90
39997;DHT22;25688;52.338;21.072;2024-01-15T00:11:56;1.10;99.90
39997;DHT22;25688;52.338;21.072;2024-01-15T00:14:22;1.00;99.90
39997;DHT22;25688;52.338;21.072;2024-01-15T00:16:48;1.00;99.90
39997;DHT22;25688;52.338;21.072;2024-01-15T00:19:16;1.00;99.90
39997;DHT22;25688;52.338;21.072;2024-01-15T00:21:42;1.00;99.90
39997;DHT22;25688;52.338;21.072;2024-01-15T00:24:08;1.10;99.90
39997;DHT22;25688;52.338;21.072;2024-01-15T00:26:34;1.10;99.90
39997;DHT22;25688;52.338;21.072;2024-01-15T00:28:59;1.10;99.90
39997;DHT22;25688;52.338;21.072;2024-01-15T00:31:25;1.10;99.90
39997;DHT22;25688;52.338;21.072;2024-01-15T00:33:51;1.00;99.90
39997;DHT22;25688;52.338;21.072;2024-01-15T00:36:17;1.10;99.90
39997;DHT22;25688;52.338;21.072;2024-01-15T00:38:44;1.00;99.90
39997;DHT22;25688;52.338;21.072;2024-01-15T00:41:09;1.00;99.90
39997;DHT22;25688;52.338;21.072;2024-01-15T00:43:35;1.00;99.90
39997;DHT22;25688;52.338;21.072;2024-01-15T00:46:04;1.00;99.90
39997;DHT22;25688;52.338;21.072;2024-01-15T00:48:30;1.00;99.90
39997;DHT22;25688;52.338;21.072;2024-01-15T00:50:56;1.10;99.90
39997;DHT22;25688;52.338;21.072;2024-01-15T00:53:21;1.10;99.90
39997;DHT22;25688;52.338;21.072;2024-01-15T00:55:50;1.00;99.90
39997;DHT22;25688;52.338;21.072;2024-01-15T00:58:15;1.10;99.90
39997;DHT22;25688;52.338;21.072;2024-01-15T01:00:41;1.10;99.90
39997;DHT22;25688;52.338;21.072;2024-01-15T01:03:08;1.10;99.90
39997;DHT22;25688;52.338;21.072;2024-01-15T01:05:34;1.10;99.90
39997;DHT22;25688;52.338;21.072;2024-01-15T01:08:00;1.20;99.90
39997;DHT22;25688;52.338;21.072;2024-01-15T01:10:27;1.10;99.90
39997;DHT22;25688;52.338;21.072;2024-01-15T01:12:53;1.10;99.90
39997;DHT22;25688;52.338;21.072;2024-01-15T01:15:18;1.10;99.90
39997;DHT22;25688;52.338;21.072;2024-01-15T01:17:44;1.00;99.90
39997;DHT22;25688;52.338;21.072;2024-01-15T01:20:10;1.10;99.90
39997;DHT22;25688;52.338;21.072;2024-01-15T01:22:36;1.10;99.90
39997;DHT22;25688;52.338;21.072;2024-01-15T01:25:02;1.20;99.90
39997;DHT22;25688;52.338;21.072;2024-01-15T01:27:28;1.10;99.90
39997;DHT22;25688;52.338;21.072;2024-01-15T01:29:53;1.00;99.90
39997;DHT22;25688;52.338;21.072;2024-01-15T01:32:19;1.00;99.90
39997;DHT22;25688;52.338;21.072;2024-01-15T01:34:45;1.00;99.90
39997;DHT22;25688;52.338;21.072;2024-01-15T01:37:11;1.00;99.90
39997;DHT22;25688;52.338;21.072;2024-01-15T01:39:43;1.00;99.90
39997;DHT22;25688;52.338;21.072;2024-01-15T01:42:09;0.90;99.90
39997;DHT22;25688;52.338;21.072;2024-01-15T01:44:34;1.00;99.90
39997;DHT22;25688;52.338;21.072;2024-01-15T01:47:00;1.00;99.90
39997;DHT22;25688;52.338;21.072;2024-01-15T01:49:27;1.00;99.90
39997;DHT22;25688;52.338;21.072;2024-01-15T01:51:55;1.00;99.90
39997;DHT22;25688;52.338;21.072;2024-01-15T01:54:21;1.00;99.90
39997;DHT22;25688;52.338;21.072;2024-01-15T01:56:48;1.00;99.90
39997;DHT22;25688;52.338;21.072;2024-01-15T01:59:14;1.00;99.90
39997;DHT22;25688;52.338;21.072;2024-01-15T02:01:40;1.00;99.90
39997;DHT22;25688;52.338;21.072;2024-01-15T02:04:06;1.00;99.90
39997;DHT22;25688;52.338;21.072;2024-01-15T02:06:32;1.00;99.90
39997;DHT22;25688;52.338;21.072;2024-01-15T02:08:58;1.00;99.90
39997;DHT22;25688;52.338;21.072;2024-01-15T02:11:24;1.10;99.90
39997;DHT22;25688;52.338;21.072;2024-01-15T02:13:50;1.00;99.90
39997;DHT22;25688;52.338;21.072;2024-01-15T02:16:15;1.10;99.90
39997;DHT22;25688;52.338;21.072;2024-01-15T02:18:42;1.00;99.90
39997;DHT22;25688;52.338;21.072;2024-01-15T02:21:09;1.00;99.90
39997;DHT22;25688;52.338;21.072;2024-01-15T02:23:34;1.00;99.90
39997;DHT22;25688;52.338;21.072;2024-01-15T02:26:00;1.00;99.90
39997;DHT22;25688;52.338;21.072;2024-01-15T02:28:26;1.00;99.90
39997;DHT22;25688;52.338;21.072;2024-01-15T02:30:52;1.00;99.90
39997;DHT22;25688;52.338;21.072;2024-01-15T02:33:18;1.00;99.90
39997;DHT22;25688;52.338;21.072;2024-01-15T02:35:43;1.00;99.90
39997;DHT22;25688;52.338;21.072;2024-01-15T02:38:09;1.00;99.90
39997;DHT22;25688;52.338;21.072;2024-01-15T02:40:35;1.00;99.90
39997;DHT22;25688;52.338;21.072;2024-01-15T02:43:01;0.90;99.90
39997;DHT22;25688;52.338;21.072;2024-01-15T02:45:27;1.00;99.90
39997;DHT22;25688;52.338;21.072;2024-01-15T02:47:52;1.00;99.90
39997;DHT22;25688;52.338;21.072;2024-01-15T02:50:18;1.00;99.90
39997;DHT22;25688;52.338;21.072;2024-01-15T02:52:44;1.10;99.90
39997;DHT22;25688;52.338;21.072;2024-01-15T02:55:09;1.00;99.90
39997;DHT22;25688;52.338;21.072;2024-01-15T02:57:35;1.00;99.90
39997;DHT22;25688;52.338;21.072;2024-01-15T03:00:01;1.10;99.90
39997;DHT22;25688;52.338;21.072;2024-01-15T03:02:26;1.00;99.90
39997;DHT22;25688;52.338;21.072;2024-01-15T03:04:52;1.00;99.90
39997;DHT22;25688;52.338;21.072;2024-01-15T03:07:18;1.00;99.90
39997;DHT22;25688;52.338;21.072;2024-01-15T03:09:44;1.00;99.90
39997;DHT22;25688;52.338;21.072;2024-01-15T03:12:09;1.00;99.90
39997;DHT22;25688;52.338;21.072;2024-01-15T03:14:36;1.40;99.90
39997;DHT22;25688;52.338;21.072;2024-01-15T03:17:02;1.00;99.90
39997;DHT22;25688;52.338;21.072;2024-01-15T03:19:29;1.00;99.90
39997;DHT22;25688;52.338;21.072;2024-01-15T03:21:56;1.00;99.90
39997;DHT22;25688;52.338;21.072;2024-01-15T03:24:22;1.20;99.90
39997;DHT22;25688;52.338;21.072;2024-01-15T03:26:47;0.90;99.90
39997;DHT22;25688;52.338;21.072;2024-01-15T03:29:13;0.90;99.90
39997;DHT22;25688;52.338;21.072;2024-01-15T03:31:39;0.90;99.90
39997;DHT22;25688;52.338;21.072;2024-01-15T03:34:04;0.90;99.90
39997;DHT22;25688;52.338;21.072;2024-01-15T03:36:30;0.90;99.90
39997;DHT22;25688;52.338;21.072;2024-01-15T03:38:56;0.90;99.90
39997;DHT22;25688;52.338;21.072;2024-01-15T03:41:22;0.80;99.90
39997;DHT22;25688;52.338;21.072;2024-01-15T03:43:47;0.80;99.90
39997;DHT22;25688;52.338;21.072;2024-01-15T03:46:13;0.80;99.90
39997;DHT22;25688;52.338;21.072;2024-01-15T03:48:38;0.80;99.90
39997;DHT22;25688;52.338;21.072;2024-01-15T03:51:04;0.80;99.90
39997;DHT22;25688;52.338;21.072;2024-01-15T03:53:30;0.80;99.90
39997;DHT22;25688;52.338;21.072;2024-01-15T03:55:56;0.80;99.90
39997;DHT22;25688;52.338;21.072;2024-01-15T03:58:22;0.80;99.90
39997;DHT22;25688;52.338;21.072;2024-01-15T04:00:47;1.20;99.90
39997;DHT22;25688;52.338;21.072;2024-01-15T04:03:13;0.80;99.90
39997;DHT22;25688;52.338;21.072;2024-01-15T04:05:39;0.80;99.90
39997;DHT22;25688;52.338;21.072;2024-01-15T04:08:04;0.80;99.90
39997;DHT22;25688;52.338;21.072;2024-01-15T04:10:30;0.90;99.90
39997;DHT22;25688;52.338;21.072;2024-01-15T04:12:57;0.90;99.90
39997;DHT22;25688;52.338;21.072;2024-01-15T04:15:25;0.80;99.90
39997;DHT22;25688;52.338;21.072;2024-01-15T04:17:51;0.80;99.90
39997;DHT22;25688;52.338;21.072;2024-01-15T04:20:17;0.90;99.90
39997;DHT22;25688;52.338;21.072;2024-01-15T04:22:43;0.90;99.90
39997;DHT22;25688;52.338;21.072;2024-01-15T04:25:09;0.90;99.90
39997;DHT22;25688;52.338;21.072;2024-01-15T04:27:35;0.90;99.90
39997;DHT22;25688;52.338;21.072;2024-01-15T04:30:01;0.90;99.90
39997;DHT22;25688;52.338;21.072;2024-01-15T04:32:26;0.90;99.90
39997;DHT22;25688;52.338;21.072;2024-01-15T04:34:52;0.90;99.90
39997;DHT22;25688;52.338;21.072;2024-01-15T04:37:18;0.90;99.90
39997;DHT22;25688;52.338;21.072;2024-01-15T04:39:43;0.90;99.90
39997;DHT22;25688;52.338;21.072;2024-01-15T04:42:09;1.00;99.90
39997;DHT22;25688;52.338;21.072;2024-01-15T04:44:35;1.00;99.90
39997;DHT22;25688;52.338;21.072;2024-01-15T04:47:01;1.00;99.90
39997;DHT22;25688;52.338;21.072;2024-01-15T04:49:27;1.00;99.90
39997;DHT22;25688;52.338;21.072;2024-01-15T04:51:55;1.00;99.90
39997;DHT22;25688;52.338;21.072;2024-01-15T04:54:20;1.00;99.90
39997;DHT22;25688;52.338;21.072;2024-01-15T04:56:46;1.10;99.90
39997;DHT22;25688;52.338;21.072;2024-01-15T04:59:13;1.10;99.90
39997;DHT22;25688;52.338;21.072;2024-01-15T05:01:39;1.10;99.90
39997;DHT22;25688;52.338;21.072;2024-01-15T05:04:05;1.10;99.90
39997;DHT22;25688;52.338;21.072;2024-01-15T05:06:31;1.10;99.90
39997;DHT22;25688;52.338;21.072;2024-01-15T05:08:57;1.10;99.90
39997;DHT22;25688;52.338;21.072;2024-01-15T05:11:23;1.10;99.90
39997;DHT22;25688;52.338;21.072;2024-01-15T05:13:48;1.10;99.90
39997;DHT22;25688;52.338;21.072;2024-01-15T05:16:14;1.20;99.90
39997;DHT22;25688;52.338;21.072;2024-01-15T05:18:40;1.20;99.90
39997;DHT22;25688;52.338;21.072;2024-01-15T05:21:05;1.20;99.90
39997;DHT22;25688;52.338;21.072;2024-01-15T05:23:32;1.20;99.90
39997;DHT22;25688;52.338;21.072;2024-01-15T05:25:57;1.20;99.90
39997;DHT22;25688;52.338;21.072;2024-01-15T05:28:23;1.20;99.90
39997;DHT22;25688;52.338;21.072;2024-01-15T05:30:49;1.30;99.90
39997;DHT22;25688;52.338;21.072;2024-01-15T05:33:16;1.20;99.90
39997;DHT22;25688;52.338;21.072;2024-01-15T05:35:42;1.20;99.90
39997;DHT22;25688;52.338;21.072;2024-01-15T05:38:08;1.20;99.90
39997;DHT22;25688;52.338;21.072;2024-01-15T05:40:33;1.20;99.90
39997;DHT22;25688;52.338;21.072;2024-01-15T05:42:59;1.10;99.90
39997;DHT22;25688;52.338;21.072;2024-01-15T05:45:26;1.20;99.90
39997;DHT22;25688;52.338;21.072;2024-01-15T05:47:52;1.10;99.90
39997;DHT22;25688;52.338;21.072;2024-01-15T05:50:18;1.10;99.90
39997;DHT22;25688;52.338;21.072;2024-01-15T05:52:44;1.10;99.90
39997;DHT22;25688;52.338;21.072;2024-01-15T05:55:09;1.30;99.90
39997;DHT22;25688;52.338;21.072;2024-01-15T05:57:36;1.10;99.90
39997;DHT22;25688;52.338;21.072;2024-01-15T06:00:03;1.10;99.90
39997;DHT22;25688;52.338;21.072;2024-01-15T06:02:29;1.10;99.90
39997;DHT22;25688;52.338;21.072;2024-01-15T06:04:55;1.10;99.90
39997;DHT22;25688;52.338;21.072;2024-01-15T06:07:21;1.10;99.90
39997;DHT22;25688;52.338;21.072;2024-01-15T06:09:46;1.10;99.90
39997;DHT22;25688;52.338;21.072;2024-01-15T06:12:12;1.10;99.90
39997;DHT22;25688;52.338;21.072;2024-01-15T06:14:38;1.10;99.90
39997;DHT22;25688;52.338;21.072;2024-01-15T06:17:04;1.10;99.90
39997;DHT22;25688;52.338;21.072;2024-01-15T06:19:29;1.10;99.90
39997;DHT22;25688;52.338;21.072;2024-01-15T06:21:55;1.10;99.90
39997;DHT22;25688;52.338;21.072;2024-01-15T06:24:21;1.10;99.90
39997;DHT22;25688;52.338;21.072;2024-01-15T06:26:47;1.10;99.90
39997;DHT22;25688;52.338;21.072;2024-01-15T06:29:12;1.10;99.90
39997;DHT22;25688;52.338;21.072;2024-01-15T06:31:38;1.10;99.90
39997;DHT22;25688;52.338;21.072;2024-01-15T06:34:04;1.10;99.90
39997;DHT22;25688;52.338;21.072;2024-01-15T06:36:29;1.10;99.90
39997;DHT22;25688;52.338;21.072;2024-01-15T06:38:55;1.10;99.90
39997;DHT22;25688;52.338;21.072;2024-01-15T06:41:21;1.10;99.90
39997;DHT22;25688;52.338;21.072;2024-01-15T06:43:47;1.10;99.90
39997;DHT22;25688;52.338;21.072;2024-01-15T06:46:22;1.10;99.90
39997;DHT22;25688;52.338;21.072;2024-01-15T06:48:48;1.20;99.90
39997;DHT22;25688;52.338;21.072;2024-01-15T06:51:15;1.20;99.90
39997;DHT22;25688;52.338;21.072;2024-01-15T06:53:41;1.20;99.90
39997;DHT22;25688;52.338;21.072;2024-01-15T06:56:06;1.20;99.90
39997;DHT22;25688;52.338;21.072;2024-01-15T06:58:32;1.10;99.90
39997;DHT22;25688;52.338;21.072;2024-01-15T07:00:58;1.10;99.90
39997;DHT22;25688;52.338;21.072;2024-01-15T07:03:24;1.10;99.90
39997;DHT22;25688;52.338;21.072;2024-01-15T07:05:50;1.20;99.90
39997;DHT22;25688;52.338;21.072;2024-01-15T07:08:15;1.10;99.90
39997;DHT22;25688;52.338;21.072;2024-01-15T07:10:41;1.10;99.90
39997;DHT22;25688;52.338;21.072;2024-01-15T07:13:07;1.00;99.90
39997;DHT22;25688;52.338;21.072;2024-01-15T07:15:32;1.00;99.90
39997;DHT22;25688;52.338;21.072;2024-01-15T07:17:58;0.90;99.90
39997;DHT22;25688;52.338;21.072;2024-01-15T07:20:24;0.90;99.90
39997;DHT22;25688;52.338;21.072;2024-01-15T07:22:49;0.90;99.90
39997;DHT22;25688;52.338;21.072;2024-01-15T07:25:15;0.90;99.90
39997;DHT22;25688;52.338;21.072;2024-01-15T07:27:41;0.90;99.90
39997;DHT22;25688;52.338;21.072;2024-01-15T07:30:11;1.00;99.90
39997;DHT22;25688;52.338;21.072;2024-01-15T07:32:37;1.00;99.90
39997;DHT22;25688;52.338;21.072;2024-01-15T07:35:03;1.00;99.90
39997;DHT22;25688;52.338;21.072;2024-01-15T07:37:29;1.00;99.90
39997;DHT22;25688;52.338;21.072;2024-01-15T07:39:55;1.00;99.90
39997;DHT22;25688;52.338;21.072;2024-01-15T07:42:21;1.00;99.90
39997;DHT22;25688;52.338;21.072;2024-01-15T07:44:46;1.10;99.90
39997;DHT22;25688;52.338;21.072;2024-01-15T07:47:12;1.10;99.90
39997;DHT22;25688;52.338;21.072;2024-01-15T07:49:38;1.00;99.90
39997;DHT22;25688;52.338;21.072;2024-01-15T07:52:04;1.00;99.90
39997;DHT22;25688;52.338;21.072;2024-01-15T07:54:31;1.00;99.90
39997;DHT22;25688;52.338;21.072;2024-01-15T07:57:00;1.00;99.90
39997;DHT22;25688;52.338;21.072;2024-01-15T07:59:27;0.90;99.90
39997;DHT22;25688;52.338;21.072;2024-01-15T08:01:53;0.90;99.90
39997;DHT22;25688;52.338;21.072;2024-01-15T08:04:19;1.00;99.90
39997;DHT22;25688;52.338;21.072;2024-01-15T08:06:45;1.00;99.90
39997;DHT22;25688;52.338;21.072;2024-01-15T08:09:12;1.00;99.90
39997;DHT22;25688;52.338;21.072;2024-01-15T08:11:40;1.10;99.90
39997;DHT22;25688;52.338;21.072;2024-01-15T08:14:10;1.10;99.90
39997;DHT22;25688;52.338;21.072;2024-01-15T08:16:36;1.20;99.90
39997;DHT22;25688;52.338;21.072;2024-01-15T08:19:02;1.20;99.90
39997;DHT22;25688;52.338;21.072;2024-01-15T08:21:28;1.10;99.90
39997;DHT22;25688;52.338;21.072;2024-01-15T08:24:01;1.10;99.90
39997;DHT22;25688;52.338;21.072;2024-01-15T08:26:30;1.10;99.90
39997;DHT22;25688;52.338;21.072;2024-01-15T08:28:56;1.00;99.90
39997;DHT22;25688;52.338;21.072;2024-01-15T08:31:22;1.00;99.90
39997;DHT22;25688;52.338;21.072;2024-01-15T08:33:47;1.00;99.90
39997;DHT22;25688;52.338;21.072;2024-01-15T08:36:13;1.10;99.90
39997;DHT22;25688;52.338;21.072;2024-01-15T08:38:39;1.20;99.90
39997;DHT22;25688;52.338;21.072;2024-01-15T08:41:05;1.40;99.90
39997;DHT22;25688;52.338;21.072;2024-01-15T08:43:30;1.40;99.90
39997;DHT22;25688;52.338;21.072;2024-01-15T08:45:57;1.50;99.90
39997;DHT22;25688;52.338;21.072;2024-01-15T08:48:22;1.50;99.90
39997;DHT22;25688;52.338;21.072;2024-01-15T08:50:48;1.50;99.90
39997;DHT22;25688;52.338;21.072;2024-01-15T08:53:14;1.60;99.90
39997;DHT22;25688;52.338;21.072;2024-01-15T08:55:40;1.60;99.90
39997;DHT22;25688;52.338;21.072;2024-01-15T08:58:08;1.60;99.90
39997;DHT22;25688;52.338;21.072;2024-01-15T09:00:34;1.60;99.90
39997;DHT22;25688;52.338;21.072;2024-01-15T09:02:59;1.60;99.90
39997;DHT22;25688;52.338;21.072;2024-01-15T09:05:25;1.70;99.90
39997;DHT22;25688;52.338;21.072;2024-01-15T09:07:51;1.70;99.90
39997;DHT22;25688;52.338;21.072;2024-01-15T09:10:18;1.60;99.90
39997;DHT22;25688;52.338;21.072;2024-01-15T09:12:43;1.70;99.90
39997;DHT22;25688;52.338;21.072;2024-01-15T09:15:10;1.60;99.90
39997;DHT22;25688;52.338;21.072;2024-01-15T09:17:35;1.60;99.90
39997;DHT22;25688;52.338;21.072;2024-01-15T09:20:01;1.50;99.90
39997;DHT22;25688;52.338;21.072;2024-01-15T09:22:27;1.50;99.90
39997;DHT22;25688;52.338;21.072;2024-01-15T09:24:52;1.50;99.90
39997;DHT22;25688;52.338;21.072;2024-01-15T09:27:18;1.50;99.90
39997;DHT22;25688;52.338;21.072;2024-01-15T09:29:44;1.60;99.90
39997;DHT22;25688;52.338;21.072;2024-01-15T09:32:12;1.80;99.90
39997;DHT22;25688;52.338;21.072;2024-01-15T09:34:38;1.90;99.90
39997;DHT22;25688;52.338;21.072;2024-01-15T09:37:04;2.10;99.90
39997;DHT22;25688;52.338;21.072;2024-01-15T09:39:30;2.20;99.90
39997;DHT22;25688;52.338;21.072;2024-01-15T09:41:56;2.10;99.90
39997;DHT22;25688;52.338;21.072;2024-01-15T09:44:23;2.20;99.90
39997;DHT22;25688;52.338;21.072;2024-01-15T09:46:49;2.20;99.90
39997;DHT22;25688;52.338;21.072;2024-01-15T09:49:16;2.20;99.90
39997;DHT22;25688;52.338;21.072;2024-01-15T09:51:42;2.20;99.90
39997;DHT22;25688;52.338;21.072;2024-01-15T09:54:09;2.10;99.90
39997;DHT22;25688;52.338;21.072;2024-01-15T09:56:35;2.20;99.90
39997;DHT22;25688;52.338;21.072;2024-01-15T09:59:01;2.20;99.90
39997;DHT22;25688;52.338;21.072;2024-01-15T10:01:28;2.30;99.90
39997;DHT22;25688;52.338;21.072;2024-01-15T10:03:54;2.20;99.90
39997;DHT22;25688;52.338;21.072;2024-01-15T10:06:21;2.10;99.90
39997;DHT22;25688;52.338;21.072;2024-01-15T10:08:49;2.10;99.90
39997;DHT22;25688;52.338;21.072;2024-01-15T10:11:15;2.10;99.90
39997;DHT22;25688;52.338;21.072;2024-01-15T10:13:43;2.10;99.90
39997;DHT22;25688;52.338;21.072;2024-01-15T10:16:10;2.10;99.90
39997;DHT22;25688;52.338;21.072;2024-01-15T10:18:36;2.10;99.90
39997;DHT22;25688;52.338;21.072;2024-01-15T10:21:03;2.10;99.90
39997;DHT22;25688;52.338;21.072;2024-01-15T10:23:31;2.10;99.90
39997;DHT22;25688;52.338;21.072;2024-01-15T10:26:00;2.20;99.90
39997;DHT22;25688;52.338;21.072;2024-01-15T10:28:27;2.10;99.90
39997;DHT22;25688;52.338;21.072;2024-01-15T10:30:57;2.20;99.90
39997;DHT22;25688;52.338;21.072;2024-01-15T10:33:23;2.20;99.90
39997;DHT22;25688;52.338;21.072;2024-01-15T10:35:56;2.20;99.90
39997;DHT22;25688;52.338;21.072;2024-01-15T10:38:22;2.20;99.90
39997;DHT22;25688;52.338;21.072;2024-01-15T10:40:54;2.20;99.90
39997;DHT22;25688;52.338;21.072;2024-01-15T10:43:21;2.20;99.90
39997;DHT22;25688;52.338;21.072;2024-01-15T10:45:48;2.20;99.90
39997;DHT22;25688;52.338;21.072;2024-01-15T10:48:16;2.30;99.90
39997;DHT22;25688;52.338;21.072;2024-01-15T10:50:46;2.30;99.90
39997;DHT22;25688;52.338;21.072;2024-01-15T10:53:14;2.30;99.90
39997;DHT22;25688;52.338;21.072;2024-01-15T10:55:42;2.30;99.90
39997;DHT22;25688;52.338;21.072;2024-01-15T10:58:09;2.30;99.90
39997;DHT22;25688;52.338;21.072;2024-01-15T11:00:36;2.30;99.90
39997;DHT22;25688;52.338;21.072;2024-01-15T11:03:06;2.60;99.90
39997;DHT22;25688;52.338;21.072;2024-01-15T11:08:06;2.30;99.90
39997;DHT22;25688;52.338;21.072;2024-01-15T11:10:46;2.30;99.90
39997;DHT22;25688;52.338;21.072;2024-01-15T11:13:40;2.30;99.90
39997;DHT22;25688;52.338;21.072;2024-01-15T11:16:08;2.20;99.90
39997;DHT22;25688;52.338;21.072;2024-01-15T11:18:39;2.10;99.90
39997;DHT22;25688;52.338;21.072;2024-01-15T11:23:47;2.00;99.90
39997;DHT22;25688;52.338;21.072;2024-01-15T11:26:44;2.10;99.90
39997;DHT22;25688;52.338;21.072;2024-01-15T11:29:32;2.20;99.90
39997;DHT22;25688;52.338;21.072;2024-01-15T11:32:02;2.10;99.90
39997;DHT22;25688;52.338;21.072;2024-01-15T11:35:01;2.20;99.90
39997;DHT22;25688;52.338;21.072;2024-01-15T11:37:29;2.30;99.90
39997;DHT22;25688;52.338;21.072;2024-01-15T11:40:00;2.40;99.90
39997;DHT22;25688;52.338;21.072;2024-01-15T11:42:26;2.50;99.90
39997;DHT22;25688;52.338;21.072;2024-01-15T11:44:53;2.50;99.90
39997;DHT22;25688;52.338;21.072;2024-01-15T11:47:42;2.30;99.90
39997;DHT22;25688;52.338;21.072;2024-01-15T11:50:14;2.30;99.90
39997;DHT22;25688;52.338;21.072;2024-01-15T11:52:46;2.20;99.90
39997;DHT22;25688;52.338;21.072;2024-01-15T11:55:33;2.00;99.90
39997;DHT22;25688;52.338;21.072;2024-01-15T11:58:01;1.80;99.90
39997;DHT22;25688;52.338;21.072;2024-01-15T12:00:28;1.70;99.90
39997;DHT22;25688;52.338;21.072;2024-01-15T12:02:54;1.60;99.90
39997;DHT22;25688;52.338;21.072;2024-01-15T12:05:23;1.60;99.90
39997;DHT22;25688;52.338;21.072;2024-01-15T12:07:50;1.70;99.90
39997;DHT22;25688;52.338;21.072;2024-01-15T12:10:18;1.80;99.90
39997;DHT22;25688;52.338;21.072;2024-01-15T12:12:59;1.90;99.90
39997;DHT22;25688;52.338;21.072;2024-01-15T12:15:27;1.90;99.90
39997;DHT22;25688;52.338;21.072;2024-01-15T12:17:55;2.00;99.90
39997;DHT22;25688;52.338;21.072;2024-01-15T12:20:24;2.00;99.90
39997;DHT22;25688;52.338;21.072;2024-01-15T12:22:49;2.00;99.90
39997;DHT22;25688;52.338;21.072;2024-01-15T12:25:15;1.90;99.90
39997;DHT22;25688;52.338;21.072;2024-01-15T12:27:41;1.80;99.90
39997;DHT22;25688;52.338;21.072;2024-01-15T12:30:09;1.70;99.90
39997;DHT22;25688;52.338;21.072;2024-01-15T12:32:37;1.60;99.90
39997;DHT22;25688;52.338;21.072;2024-01-15T12:35:03;1.60;99.90
39997;DHT22;25688;52.338;21.072;2024-01-15T12:37:30;1.60;99.90
39997;DHT22;25688;52.338;21.072;2024-01-15T12:39:56;1.50;99.90
39997;DHT22;25688;52.338;21.072;2024-01-15T12:42:22;1.50;99.90
39997;DHT22;25688;52.338;21.072;2024-01-15T12:44:47;1.50;99.90
39997;DHT22;25688;52.338;21.072;2024-01-15T12:47:13;1.40;99.90
39997;DHT22;25688;52.338;21.072;2024-01-15T12:49:39;1.40;99.90
39997;DHT22;25688;52.338;21.072;2024-01-15T12:52:09;1.30;99.90
39997;DHT22;25688;52.338;21.072;2024-01-15T12:54:35;1.20;99.90
39997;DHT22;25688;52.338;21.072;2024-01-15T12:57:01;1.20;99.90
39997;DHT22;25688;52.338;21.072;2024-01-15T12:59:27;1.20;99.90
39997;DHT22;25688;52.338;21.072;2024-01-15T13:01:53;1.30;99.90
39997;DHT22;25688;52.338;21.072;2024-01-15T13:04:24;1.10;99.90
39997;DHT22;25688;52.338;21.072;2024-01-15T13:06:51;1.10;99.90
39997;DHT22;25688;52.338;21.072;2024-01-15T13:09:17;1.10;99.90
39997;DHT22;25688;52.338;21.072;2024-01-15T13:11:44;1.10;99.90
39997;DHT22;25688;52.338;21.072;2024-01-15T13:14:10;1.10;99.90
39997;DHT22;25688;52.338;21.072;2024-01-15T13:16:36;1.10;99.90
39997;DHT22;25688;52.338;21.072;2024-01-15T13:19:01;1.10;99.90
39997;DHT22;25688;52.338;21.072;2024-01-15T13:21:29;1.20;99.90
39997;DHT22;25688;52.338;21.072;2024-01-15T13:23:55;1.20;99.90
39997;DHT22;25688;52.338;21.072;2024-01-15T13:26:21;1.20;99.90
39997;DHT22;25688;52.338;21.072;2024-01-15T13:28:47;1.20;99.90
39997;DHT22;25688;52.338;21.072;2024-01-15T13:31:12;1.10;99.90
39997;DHT22;25688;52.338;21.072;2024-01-15T13:33:38;1.10;99.90
39997;DHT22;25688;52.338;21.072;2024-01-15T13:36:05;1.10;99.90
39997;DHT22;25688;52.338;21.072;2024-01-15T13:38:34;1.10;99.90
39997;DHT22;25688;52.338;21.072;2024-01-15T13:41:02;1.10;99.90
39997;DHT22;25688;52.338;21.072;2024-01-15T13:43:28;1.10;99.90
39997;DHT22;25688;52.338;21.072;2024-01-15T13:45:54;1.10;99.90
39997;DHT22;25688;52.338;21.072;2024-01-15T13:48:20;1.40;99.90
39997;DHT22;25688;52.338;21.072;2024-01-15T13:50:46;1.10;99.90
39997;DHT22;25688;52.338;21.072;2024-01-15T13:53:11;1.10;99.90
39997;DHT22;25688;52.338;21.072;2024-01-15T13:55:37;1.10;99.90
39997;DHT22;25688;52.338;21.072;2024-01-15T13:58:02;1.10;99.90
39997;DHT22;25688;52.338;21.072;2024-01-15T14:00:31;1.10;99.90
39997;DHT22;25688;52.338;21.072;2024-01-15T14:02:57;1.10;99.90
39997;DHT22;25688;52.338;21.072;2024-01-15T14:05:23;1.20;99.90
39997;DHT22;25688;52.338;21.072;2024-01-15T14:07:49;1.20;99.90
39997;DHT22;25688;52.338;21.072;2024-01-15T14:10:15;1.20;99.90
39997;DHT22;25688;52.338;21.072;2024-01-15T14:12:40;1.20;99.90
39997;DHT22;25688;52.338;21.072;2024-01-15T14:15:07;1.20;99.90
39997;DHT22;25688;52.338;21.072;2024-01-15T14:17:33;1.20;99.90
39997;DHT22;25688;52.338;21.072;2024-01-15T14:19:59;1.20;99.90
39997;DHT22;25688;52.338;21.072;2024-01-15T14:22:24;1.10;99.90
39997;DHT22;25688;52.338;21.072;2024-01-15T14:24:50;1.10;99.90
39997;DHT22;25688;52.338;21.072;2024-01-15T14:27:16;1.10;99.90
39997;DHT22;25688;52.338;21.072;2024-01-15T14:29:42;1.00;99.90
39997;DHT22;25688;52.338;21.072;2024-01-15T14:32:08;1.10;99.90
39997;DHT22;25688;52.338;21.072;2024-01-15T14:34:33;1.10;99.90
39997;DHT22;25688;52.338;21.072;2024-01-15T14:37:01;1.10;99.90
39997;DHT22;25688;52.338;21.072;2024-01-15T14:39:27;1.10;99.90
39997;DHT22;25688;52.338;21.072;2024-01-15T14:41:52;1.10;99.90
39997;DHT22;25688;52.338;21.072;2024-01-15T14:44:18;1.10;99.90
39997;DHT22;25688;52.338;21.072;2024-01-15T14:46:44;1.00;99.90
39997;DHT22;25688;52.338;21.072;2024-01-15T14:49:11;1.00;99.90
39997;DHT22;25688;52.338;21.072;2024-01-15T14:51:36;1.00;99.90
39997;DHT22;25688;52.338;21.072;2024-01-15T14:54:02;1.00;99.90
39997;DHT22;25688;52.338;21.072;2024-01-15T14:56:28;1.00;99.90
39997;DHT22;25688;52.338;21.072;2024-01-15T14:58:54;1.00;99.90
39997;DHT22;25688;52.338;21.072;2024-01-15T15:01:20;1.20;99.90
39997;DHT22;25688;52.338;21.072;2024-01-15T15:03:45;1.00;99.90
39997;DHT22;25688;52.338;21.072;2024-01-15T15:06:11;1.00;99.90
39997;DHT22;25688;52.338;21.072;2024-01-15T15:08:37;0.90;99.90
39997;DHT22;25688;52.338;21.072;2024-01-15T15:11:04;0.80;99.90
39997;DHT22;25688;52.338;21.072;2024-01-15T15:13:30;0.70;99.90
39997;DHT22;25688;52.338;21.072;2024-01-15T15:15:55;0.60;99.90
39997;DHT22;25688;52.338;21.072;2024-01-15T15:18:21;1.00;99.90
39997;DHT22;25688;52.338;21.072;2024-01-15T15:20:47;0.60;99.90
39997;DHT22;25688;52.338;21.072;2024-01-15T15:23:13;0.90;99.90
39997;DHT22;25688;52.338;21.072;2024-01-15T15:25:39;0.60;99.90
39997;DHT22;25688;52.338;21.072;2024-01-15T15:28:05;0.70;99.90
39997;DHT22;25688;52.338;21.072;2024-01-15T15:30:31;0.70;99.90
39997;DHT22;25688;52.338;21.072;2024-01-15T15:32:57;0.70;99.90